Time;durP1;ratioP1;P1;durP2;ratioP2;P2;SDS_P1;SDS_P2;PMS_P1;PMS_P2;Temp;Humidity;BMP_temperature;BMP_pressure;BME280_temperature;BME280_humidity;BME280_pressure;Samples;Min_cycle;Max_cycle;Signal;HPM_P1;HPM_P2
2022/07/15 00:00:39;;;;;;;;;8.80;8.80;;;;;26.54;33.39;101584.41;2095596;28;47375;-55
2022/07/15 00:01:40;;;;;;;;;10.00;9.00;;;;;26.52;33.63;101582.78;2087101;28;47607;-54
2022/07/15 00:02:40;;;;;;;;;10.75;10.75;;;;;26.49;33.85;101578.44;2088159;28;47717;-53
2022/07/15 00:03:41;;;;;;;;;7.75;7.25;;;;;26.47;33.86;101579.53;2096913;28;47608;-53
2022/07/15 00:04:41;;;;;;;;;8.00;8.00;;;;;26.45;33.99;101582.38;2097000;28;47935;-53
2022/07/15 00:05:42;;;;;;;;;7.25;7.00;;;;;26.43;33.49;101578.91;2097417;28;47313;-54
2022/07/15 00:06:42;;;;;;;;;6.00;6.00;;;;;26.43;33.56;101584.34;2096971;28;47064;-58
2022/07/15 00:07:43;;;;;;;;;6.00;6.00;;;;;26.40;34.27;101580.00;2097100;28;47484;-53
2022/07/15 00:08:43;;;;;;;;;4.50;4.50;;;;;26.40;34.21;101579.13;2097084;28;47575;-54
2022/07/15 00:11:02;;;;;;;;;2.80;2.80;;;;;26.35;34.17;101582.16;2088189;28;47080;-53
2022/07/15 00:12:03;;;;;;;;;4.75;3.50;;;;;26.33;33.71;101578.69;2088290;28;48283;-52
2022/07/15 00:13:03;;;;;;;;;5.75;5.75;;;;;26.31;33.82;101582.50;2078881;28;47855;-56
2022/07/15 00:14:04;;;;;;;;;8.25;8.25;;;;;26.29;34.33;101579.00;2072219;28;47344;-53
2022/07/15 00:15:05;;;;;;;;;4.75;4.75;;;;;26.28;33.69;101580.88;2096018;28;47876;-54
2022/07/15 00:16:06;;;;;;;;;3.80;3.80;;;;;26.27;34.33;101578.25;2096871;28;47259;-52
2022/07/15 00:17:07;;;;;;;;;7.00;5.50;;;;;26.26;33.94;101579.25;2097194;28;47600;-54
2022/07/15 00:18:07;;;;;;;;;4.80;4.80;;;;;26.24;34.24;101579.38;2096893;28;47418;-52
2022/07/15 00:19:08;;;;;;;;;5.00;5.00;;;;;26.24;34.05;101576.63;2096789;28;47974;-52
2022/07/15 00:20:09;;;;;;;;;5.50;5.50;;;;;26.22;34.34;101578.59;2096855;28;47623;-55
2022/07/15 00:21:10;;;;;;;;;7.00;7.00;;;;;26.21;34.08;101579.59;2096796;28;47466;-54
2022/07/15 00:22:11;;;;;;;;;5.25;5.25;;;;;26.21;33.96;101581.44;2096950;28;48031;-52
2022/07/15 00:23:11;;;;;;;;;4.20;4.20;;;;;26.20;34.22;101577.00;2096469;28;48311;-55
2022/07/15 00:24:12;;;;;;;;;5.25;5.25;;;;;26.19;34.69;101580.69;2078706;28;48009;-53
2022/07/15 00:25:13;;;;;;;;;5.50;5.50;;;;;26.18;34.56;101584.41;2078736;28;47831;-53
2022/07/15 00:26:13;;;;;;;;;6.00;6.00;;;;;26.17;34.11;101586.25;2096730;28;48116;-55
2022/07/15 00:27:14;;;;;;;;;5.00;5.00;;;;;26.18;34.72;101592.56;2096889;28;47398;-53
2022/07/15 00:28:15;;;;;;;;;4.75;4.75;;;;;26.17;34.85;101586.25;2096720;28;47666;-55
2022/07/15 00:29:15;;;;;;;;;6.40;6.20;;;;;26.17;34.62;101585.34;2097221;28;45370;-54
2022/07/15 00:30:16;;;;;;;;;6.75;6.25;;;;;26.16;34.16;101591.78;2096984;28;47365;-54
2022/07/15 00:31:16;;;;;;;;;4.00;4.00;;;;;26.14;34.70;101588.31;2096480;28;47523;-54
2022/07/15 00:32:17;;;;;;;;;5.00;5.00;;;;;26.13;35.02;101592.88;2097037;28;47665;-56
2022/07/15 00:33:17;;;;;;;;;6.50;6.00;;;;;26.10;34.31;101585.81;2096528;28;47174;-54
2022/07/15 00:34:17;;;;;;;;;4.50;4.50;;;;;26.08;35.07;101579.63;2096832;28;47847;-51
2022/07/15 00:35:18;;;;;;;;;4.00;4.00;;;;;26.08;34.86;101590.50;2096382;28;47567;-53
2022/07/15 00:36:19;;;;;;;;;5.00;5.00;;;;;26.08;34.67;101592.34;2096806;28;47792;-54
2022/07/15 00:37:22;;;;;;;;;5.20;5.20;;;;;26.08;34.40;101586.91;2096724;28;48119;-53
2022/07/15 00:38:22;;;;;;;;;7.00;7.00;;;;;26.06;34.98;101586.16;2096925;28;47681;-55
2022/07/15 00:39:23;;;;;;;;;6.75;5.25;;;;;26.06;34.61;101586.16;2096622;28;47605;-55
2022/07/15 00:40:23;;;;;;;;;5.00;4.00;;;;;26.05;35.05;101593.47;2096746;28;47936;-55
2022/07/15 00:41:24;;;;;;;;;4.25;4.25;;;;;26.05;34.95;101595.31;2096507;28;47573;-53
2022/07/15 00:43:43;;;;;;;;;10.00;9.00;;;;;26.03;34.67;101602.69;2104229;28;47562;-54
2022/07/15 00:44:44;;;;;;;;;5.50;5.50;;;;;26.00;34.98;101605.63;2100552;28;47305;-54
2022/07/15 00:45:45;;;;;;;;;7.75;7.75;;;;;25.99;34.94;101595.75;2104607;28;47215;-55
2022/07/15 00:46:47;;;;;;;;;4.80;4.80;;;;;25.98;35.13;101604.88;2102661;28;47285;-54
2022/07/15 00:47:51;;;;;;;;;6.00;4.60;;;;;25.96;35.11;101602.28;2102188;28;47790;-54
2022/07/15 00:48:52;;;;;;;;;5.00;5.00;;;;;25.97;35.33;101605.88;2104770;28;47489;-53
2022/07/15 00:49:52;;;;;;;;;5.75;5.00;;;;;25.96;34.60;101609.56;2093895;28;46803;-54
2022/07/15 00:50:53;;;;;;;;;6.50;6.50;;;;;25.95;35.35;101613.28;2078427;28;47920;-53
2022/07/15 00:51:55;;;;;;;;;5.00;5.00;;;;;25.94;34.95;101615.13;2086994;28;47772;-53
2022/07/15 00:53:07;;;;;;;;;6.00;6.00;;;;;25.93;35.04;101612.53;2095814;28;47501;-52
2022/07/15 00:54:13;;;;;;;;;6.80;6.80;;;;;25.91;35.16;101612.59;2096399;28;47768;-52
2022/07/15 00:55:14;;;;;;;;;5.80;5.80;;;;;25.90;35.21;101612.72;2096532;28;47850;-53
2022/07/15 00:56:17;;;;;;;;;5.50;5.50;;;;;25.89;35.58;101613.69;2100625;28;47459;-54
2022/07/15 00:57:18;;;;;;;;;5.40;5.40;;;;;25.88;35.23;101615.53;2104423;28;47591;-50
2022/07/15 00:58:23;;;;;;;;;3.40;3.40;;;;;25.88;35.16;101615.53;2104551;28;47355;-55
2022/07/15 00:59:28;;;;;;;;;5.00;5.00;;;;;25.88;34.96;101628.28;2105159;28;48493;-53
2022/07/15 01:00:29;;;;;;;;;5.20;5.20;;;;;25.87;35.52;101619.25;2105043;28;48374;-54
2022/07/15 01:01:29;;;;;;;;;4.50;4.50;;;;;25.86;35.37;101620.22;2111689;27;47335;-53
2022/07/15 01:02:33;;;;;;;;;8.00;7.00;;;;;25.86;35.44;101625.66;2110750;27;47370;-53
2022/07/15 01:03:33;;;;;;;;;6.80;5.20;;;;;25.85;35.48;101623.94;2104698;28;47932;-55
2022/07/15 01:04:35;;;;;;;;;6.00;6.00;;;;;25.84;35.34;101624.03;2104340;28;48061;-53
2022/07/15 01:05:37;;;;;;;;;8.00;6.20;;;;;25.83;35.34;101634.06;2104765;28;47344;-55
2022/07/15 01:06:37;;;;;;;;;7.20;7.20;;;;;25.81;35.61;101634.16;2104536;28;48395;-53
2022/07/15 01:07:38;;;;;;;;;6.00;4.50;;;;;25.80;35.05;101631.56;2104929;28;47342;-52
2022/07/15 01:08:38;;;;;;;;;4.20;4.20;;;;;25.79;35.07;101624.34;2104701;28;47518;-54
2022/07/15 01:09:39;;;;;;;;;5.50;5.00;;;;;25.77;35.17;101632.63;2104284;28;47510;-55
2022/07/15 01:10:41;;;;;;;;;5.00;5.00;;;;;25.76;35.17;101621.84;2095629;28;47343;-55
2022/07/15 01:11:41;;;;;;;;;4.00;4.00;;;;;25.75;35.50;101631.00;2096060;28;47577;-55
2022/07/15 01:12:43;;;;;;;;;4.25;4.25;;;;;25.73;35.82;101633.81;2104720;27;47651;-53
2022/07/15 01:13:43;;;;;;;;;5.40;5.40;;;;;25.71;35.68;101627.63;2104700;28;47835;-57
2022/07/15 01:14:44;;;;;;;;;5.25;5.25;;;;;25.70;35.88;101628.63;2104924;28;47661;-53
2022/07/15 01:15:44;;;;;;;;;2.75;2.75;;;;;25.67;35.34;101626.09;2104663;28;47528;-53
2022/07/15 01:16:45;;;;;;;;;7.25;6.50;;;;;25.66;35.74;101626.16;2104735;28;47914;-53
2022/07/15 01:17:46;;;;;;;;;7.00;5.25;;;;;25.65;35.90;101629.88;2104829;28;47762;-54
2022/07/15 01:18:46;;;;;;;;;5.00;5.00;;;;;25.63;35.89;101629.13;2095487;28;47724;-54
2022/07/15 01:19:46;;;;;;;;;5.25;5.25;;;;;25.62;35.50;101635.53;2096131;28;47891;-54
2022/07/15 01:20:47;;;;;;;;;4.25;4.25;;;;;25.60;35.71;101632.06;2104746;28;45847;-53
2022/07/15 01:21:48;;;;;;;;;4.00;4.00;;;;;25.57;35.33;101633.16;2104466;28;48160;-52
2022/07/15 01:22:48;;;;;;;;;5.00;5.00;;;;;25.57;35.63;101635.00;2104742;28;47456;-53
2022/07/15 01:23:49;;;;;;;;;3.75;3.50;;;;;25.55;36.11;101643.25;2104764;28;47925;-53
2022/07/15 01:24:51;;;;;;;;;4.40;4.40;;;;;25.55;36.00;101643.25;2104160;28;47900;-54
2022/07/15 01:25:53;;;;;;;;;4.00;4.00;;;;;25.54;35.91;101644.25;2104844;28;46315;-53
2022/07/15 01:26:53;;;;;;;;;5.80;5.80;;;;;25.52;35.99;101640.72;2104672;28;47458;-55
2022/07/15 01:27:54;;;;;;;;;3.75;3.75;;;;;25.50;35.93;101646.28;2104983;28;48058;-53
2022/07/15 01:28:54;;;;;;;;;3.50;3.50;;;;;25.49;35.49;101647.25;2104712;28;47912;-54
2022/07/15 01:29:55;;;;;;;;;3.50;3.50;;;;;25.48;36.05;101639.22;2104717;28;47118;-54
2022/07/15 01:30:55;;;;;;;;;3.80;3.80;;;;;25.47;35.63;101641.06;2104883;28;47819;-53
2022/07/15 01:31:56;;;;;;;;;3.50;3.50;;;;;25.44;35.87;101641.28;2104561;28;47836;-53
2022/07/15 01:32:56;;;;;;;;;3.75;3.00;;;;;25.42;35.51;101639.66;2104770;28;47563;-55
2022/07/15 01:33:57;;;;;;;;;2.50;2.50;;;;;25.40;35.94;101633.44;2104108;28;47532;-53
2022/07/15 01:34:57;;;;;;;;;3.50;3.00;;;;;25.38;35.60;101636.25;2104131;28;47520;-54
2022/07/15 01:35:59;;;;;;;;;3.75;3.75;;;;;25.38;35.66;101638.97;2104466;28;47490;-56
2022/07/15 01:36:59;;;;;;;;;2.80;2.80;;;;;25.34;36.05;101642.88;2104458;28;47502;-56
2022/07/15 01:38:00;;;;;;;;;4.00;3.25;;;;;25.32;35.97;101636.69;2095518;28;45928;-53
2022/07/15 01:39:01;;;;;;;;;3.75;3.50;;;;;25.32;35.36;101635.81;2087714;28;48434;-55
2022/07/15 01:40:02;;;;;;;;;4.80;3.00;;;;;25.30;35.45;101635.06;2095558;28;47738;-55
2022/07/15 01:41:03;;;;;;;;;4.00;4.00;;;;;25.29;35.77;101638.75;2103941;28;47579;-54
2022/07/15 01:42:03;;;;;;;;;3.60;3.60;;;;;25.27;35.94;101640.69;2103866;28;47688;-56
2022/07/15 01:43:04;;;;;;;;;4.00;4.00;;;;;25.24;35.75;101636.34;2104563;28;47464;-54
2022/07/15 01:44:04;;;;;;;;;3.50;3.50;;;;;25.22;35.77;101638.31;2104344;28;47398;-55
2022/07/15 01:45:06;;;;;;;;;3.75;3.50;;;;;25.20;35.76;101638.41;2104472;28;48004;-50
2022/07/15 01:46:07;;;;;;;;;4.20;4.20;;;;;25.18;35.75;101642.22;2103958;28;48328;-54
2022/07/15 01:47:07;;;;;;;;;3.75;2.00;;;;;25.17;35.94;101641.34;2104615;28;47487;-54
2022/07/15 01:49:21;;;;;;;;;2.25;2.25;;;;;25.16;35.91;101636.88;2104508;28;47586;-54
2022/07/15 01:49:34;;;;;;;;;3.00;3.00;;;;;25.15;35.64;101632.41;2104464;28;48105;-51
2022/07/15 01:50:34;;;;;;;;;2.20;2.20;;;;;25.13;35.85;101645.22;2104460;28;47352;-55
2022/07/15 01:51:35;;;;;;;;;3.00;3.00;;;;;25.12;35.63;101638.06;2095098;28;46745;-50
2022/07/15 01:52:36;;;;;;;;;3.00;3.00;;;;;25.11;36.12;101636.31;2086852;28;47531;-52
2022/07/15 01:53:36;;;;;;;;;3.00;3.00;;;;;25.10;35.87;101642.72;2087093;28;47562;-51
2022/07/15 01:54:37;;;;;;;;;2.75;2.75;;;;;25.09;36.02;101637.41;2101115;28;47597;-53
2022/07/15 01:55:37;;;;;;;;;2.25;2.25;;;;;25.08;35.65;101633.81;2104341;28;47789;-54
2022/07/15 01:56:37;;;;;;;;;5.75;4.50;;;;;25.06;36.09;101637.63;2093562;28;47262;-54
2022/07/15 01:57:38;;;;;;;;;2.25;2.25;;;;;25.03;36.02;101638.69;2093909;28;47826;-53
2022/07/15 01:58:38;;;;;;;;;4.25;4.25;;;;;25.01;36.03;101640.63;2101994;28;47613;-53
2022/07/15 01:59:39;;;;;;;;;2.00;2.00;;;;;25.00;35.96;101637.97;2101881;28;47913;-54
2022/07/15 02:00:39;;;;;;;;;3.00;1.75;;;;;24.98;35.93;101639.94;2104211;28;47643;-55
2022/07/15 02:01:40;;;;;;;;;2.75;2.75;;;;;24.96;35.85;101640.03;2094812;28;47280;-53
2022/07/15 02:02:40;;;;;;;;;1.00;1.00;;;;;24.93;36.13;101634.81;2090590;28;48092;-53
2022/07/15 02:03:40;;;;;;;;;2.00;2.00;;;;;24.90;36.16;101632.28;2104491;28;47580;-54
2022/07/15 02:04:41;;;;;;;;;2.00;2.00;;;;;24.89;36.21;101630.56;2104707;28;47653;-53
2022/07/15 02:05:41;;;;;;;;;4.75;2.75;;;;;24.87;35.86;101633.38;2104477;28;47834;-53
2022/07/15 02:06:42;;;;;;;;;3.50;3.25;;;;;24.86;36.14;101628.91;2104625;28;47511;-52
2022/07/15 02:07:42;;;;;;;;;2.50;1.00;;;;;24.84;36.39;101635.44;2095334;28;47533;-54
2022/07/15 02:08:43;;;;;;;;;4.25;3.50;;;;;24.82;35.95;101640.09;2095497;28;47425;-55
2022/07/15 02:09:43;;;;;;;;;1.75;1.75;;;;;24.79;35.85;101643.91;2095421;28;47068;-53
2022/07/15 02:10:44;;;;;;;;;1.25;1.25;;;;;24.77;36.02;101634.94;2095253;28;48038;-53
2022/07/15 02:11:44;;;;;;;;;3.25;3.25;;;;;24.74;35.92;101629.72;2104270;28;47643;-57
2022/07/15 02:12:45;;;;;;;;;3.50;3.50;;;;;24.72;35.92;101634.41;2103923;28;47570;-50
2022/07/15 02:13:45;;;;;;;;;3.00;3.00;;;;;24.70;36.04;101638.19;2104098;28;48226;-53
2022/07/15 02:14:46;;;;;;;;;3.75;3.75;;;;;24.69;36.13;101636.47;2104654;28;47471;-55
2022/07/15 02:15:47;;;;;;;;;2.75;2.75;;;;;24.67;36.28;101628.41;2104281;28;47541;-53
2022/07/15 02:16:47;;;;;;;;;5.25;5.00;;;;;24.66;36.08;101629.41;2104363;28;47323;-53
2022/07/15 02:17:47;;;;;;;;;6.00;5.00;;;;;24.65;36.12;101633.97;2104235;28;47262;-56
2022/07/15 02:18:48;;;;;;;;;5.75;3.00;;;;;24.65;36.08;101631.25;2104411;28;47710;-54
2022/07/15 02:19:48;;;;;;;;;4.50;3.75;;;;;24.64;35.96;101643.03;2104448;28;47337;-52
2022/07/15 02:20:49;;;;;;;;;1.75;1.75;;;;;24.63;36.44;101635.88;2104336;28;48250;-53
2022/07/15 02:21:49;;;;;;;;;3.00;3.00;;;;;24.62;35.96;101634.13;2104202;28;47339;-55
2022/07/15 02:22:50;;;;;;;;;4.00;3.50;;;;;24.60;36.38;101636.09;2090879;28;47948;-50
2022/07/15 02:23:50;;;;;;;;;3.00;3.00;;;;;24.60;36.10;101636.09;2090982;28;47176;-54
2022/07/15 02:24:50;;;;;;;;;3.00;3.00;;;;;24.60;36.03;101635.22;2103877;28;47453;-53
2022/07/15 02:25:51;;;;;;;;;3.75;3.75;;;;;24.58;35.92;101632.59;2104332;28;47699;-53
2022/07/15 02:26:51;;;;;;;;;3.25;3.25;;;;;24.58;36.09;101635.31;2104569;28;47985;-52
2022/07/15 02:27:57;;;;;;;;;4.75;3.00;;;;;24.58;36.07;101631.72;2104349;28;47641;-55
2022/07/15 02:28:57;;;;;;;;;2.40;2.40;;;;;24.57;36.17;101630.88;2104248;28;47916;-55
2022/07/15 02:29:58;;;;;;;;;3.00;3.00;;;;;24.58;35.79;101637.16;2104227;28;47581;-54
2022/07/15 02:30:58;;;;;;;;;2.25;2.25;;;;;24.55;35.76;101643.66;2104566;28;47941;-53
2022/07/15 02:31:59;;;;;;;;;2.75;2.75;;;;;24.56;35.86;101633.69;2104022;28;47802;-53
2022/07/15 02:33:00;;;;;;;;;2.00;2.00;;;;;24.56;36.26;101633.69;2104286;28;46684;-53
2022/07/15 02:34:00;;;;;;;;;2.00;2.00;;;;;24.56;36.47;101636.41;2095277;28;47262;-53
2022/07/15 02:35:01;;;;;;;;;2.00;2.00;;;;;24.55;35.87;101634.66;2095389;28;47648;-53
2022/07/15 02:36:01;;;;;;;;;3.50;2.50;;;;;24.54;36.09;101632.91;2104007;28;47574;-52
2022/07/15 02:37:01;;;;;;;;;3.75;3.25;;;;;24.55;36.11;101637.38;2103732;28;47331;-51
2022/07/15 02:38:03;;;;;;;;;3.75;3.00;;;;;24.55;36.15;101638.25;2095154;28;47177;-54
2022/07/15 02:39:04;;;;;;;;;2.00;2.00;;;;;24.55;36.15;101640.09;2095375;28;47623;-54
2022/07/15 02:40:05;;;;;;;;;4.00;3.00;;;;;24.55;35.94;101642.78;2104076;28;47041;-54
2022/07/15 02:41:06;;;;;;;;;3.00;3.00;;;;;24.55;36.05;101642.78;2104220;28;48096;-55
2022/07/15 02:42:07;;;;;;;;;3.80;3.80;;;;;24.55;35.79;101640.97;2103046;28;47769;-54
2022/07/15 02:43:08;;;;;;;;;4.00;4.00;;;;;24.56;35.90;101639.13;2104050;28;47674;-55
2022/07/15 02:44:08;;;;;;;;;5.00;5.00;;;;;24.55;35.88;101635.53;2103869;28;47347;-52
2022/07/15 02:45:09;;;;;;;;;2.25;2.25;;;;;24.54;36.20;101638.34;2101736;28;47561;-53
2022/07/15 02:46:10;;;;;;;;;2.00;2.00;;;;;24.52;36.02;101638.44;2103205;28;47816;-53
2022/07/15 02:47:10;;;;;;;;;3.00;3.00;;;;;24.51;35.81;101635.81;2104194;28;47695;-55
2022/07/15 02:48:10;;;;;;;;;2.75;2.75;;;;;24.49;36.23;101635.91;2095432;28;47571;-53
2022/07/15 02:49:11;;;;;;;;;2.50;2.50;;;;;24.49;35.87;101637.75;2095259;28;47572;-54
2022/07/15 02:50:11;;;;;;;;;3.00;2.75;;;;;24.48;35.88;101641.44;2104207;28;47940;-55
2022/07/15 02:51:12;;;;;;;;;3.50;3.50;;;;;24.47;35.88;101637.00;2103963;28;47813;-53
2022/07/15 02:52:13;;;;;;;;;4.20;2.80;;;;;24.45;35.95;101636.22;2103868;28;47968;-53
2022/07/15 02:53:13;;;;;;;;;2.75;2.75;;;;;24.43;36.11;101630.03;2104258;28;46799;-54
2022/07/15 02:54:14;;;;;;;;;2.00;2.00;;;;;24.43;35.88;101630.91;2102929;28;47683;-52
2022/07/15 02:55:15;;;;;;;;;2.00;2.00;;;;;24.43;35.93;101639.03;2104126;28;47922;-55
2022/07/15 02:56:16;;;;;;;;;4.00;4.00;;;;;24.42;36.12;101640.00;2104165;28;47408;-50
2022/07/15 02:57:16;;;;;;;;;5.25;3.25;;;;;24.41;36.12;101630.13;2104009;28;46632;-52
2022/07/15 02:58:16;;;;;;;;;3.00;3.00;;;;;24.43;36.07;101635.47;2086178;28;47676;-54
2022/07/15 02:59:17;;;;;;;;;4.00;3.00;;;;;24.42;35.99;101637.31;2086003;28;47588;-52
2022/07/15 03:00:17;;;;;;;;;3.25;3.25;;;;;24.41;35.85;101641.00;2104190;28;47977;-54
2022/07/15 03:01:18;;;;;;;;;2.00;2.00;;;;;24.41;36.01;101638.28;2109268;27;47396;-54
2022/07/15 03:02:18;;;;;;;;;5.00;4.00;;;;;24.42;36.03;101648.16;2111260;27;47807;-52
2022/07/15 03:03:19;;;;;;;;;3.75;3.75;;;;;24.42;36.05;101641.84;2102976;28;48262;-52
2022/07/15 03:04:19;;;;;;;;;3.25;3.25;;;;;24.41;35.78;101649.13;2102888;28;47077;-53
2022/07/15 03:05:20;;;;;;;;;2.00;2.00;;;;;24.39;35.84;101645.63;2104399;28;47184;-55
2022/07/15 03:06:20;;;;;;;;;3.00;3.00;;;;;24.38;35.95;101648.44;2104159;28;47284;-56
2022/07/15 03:07:20;;;;;;;;;2.25;2.25;;;;;24.36;36.06;101648.53;2103795;28;46212;-54
2022/07/15 03:08:21;;;;;;;;;4.75;3.50;;;;;24.35;35.83;101650.38;2103718;28;47148;-53
2022/07/15 03:09:21;;;;;;;;;4.75;4.75;;;;;24.34;36.05;101650.47;2102523;28;47412;-52
2022/07/15 03:10:22;;;;;;;;;2.75;2.75;;;;;24.34;35.86;101647.78;2104231;28;47470;-54
2022/07/15 03:11:22;;;;;;;;;1.00;1.00;;;;;24.33;36.16;101643.31;2104187;28;48115;-54
2022/07/15 03:12:23;;;;;;;;;2.25;2.25;;;;;24.33;36.07;101646.91;2103416;28;47721;-52
2022/07/15 03:13:25;;;;;;;;;4.75;4.00;;;;;24.32;36.13;101647.00;2104275;28;47988;-54
2022/07/15 03:14:25;;;;;;;;;3.40;3.40;;;;;24.32;36.42;101641.56;2103867;28;47532;-53
2022/07/15 03:15:26;;;;;;;;;3.25;3.25;;;;;24.31;36.35;101651.56;2103989;28;47617;-53
2022/07/15 03:16:26;;;;;;;;;2.25;2.25;;;;;24.32;36.26;101652.44;2104097;28;47296;-52
2022/07/15 03:17:27;;;;;;;;;4.00;4.00;;;;;24.32;36.00;101653.28;2085903;28;47925;-50
2022/07/15 03:18:27;;;;;;;;;4.00;4.00;;;;;24.32;35.92;101655.13;2086238;28;47187;-51
2022/07/15 03:19:28;;;;;;;;;3.75;3.75;;;;;24.30;36.01;101657.97;2104146;28;47534;-54
2022/07/15 03:20:28;;;;;;;;;4.00;3.00;;;;;24.29;36.07;101663.44;2103854;28;47410;-53
2022/07/15 03:21:28;;;;;;;;;4.75;4.75;;;;;24.28;36.05;101669.84;2104078;28;47127;-54
2022/07/15 03:22:29;;;;;;;;;3.75;2.75;;;;;24.28;36.08;101664.41;2094735;28;47506;-52
2022/07/15 03:23:29;;;;;;;;;3.50;3.00;;;;;24.28;35.99;101664.41;2094790;28;47428;-54
2022/07/15 03:24:30;;;;;;;;;7.00;6.00;;;;;24.28;35.95;101667.13;2104062;28;47196;-54
2022/07/15 03:25:30;;;;;;;;;8.25;8.25;;;;;24.26;36.01;101664.50;2094969;28;47482;-55
2022/07/15 03:26:31;;;;;;;;;4.50;4.50;;;;;24.27;36.12;101670.81;2094882;28;47539;-52
2022/07/15 03:27:31;;;;;;;;;9.50;6.00;;;;;24.27;36.13;101670.81;2103974;28;47559;-54
2022/07/15 03:28:31;;;;;;;;;4.00;4.00;;;;;24.25;35.83;101670.88;2103786;28;47073;-53
2022/07/15 03:29:32;;;;;;;;;2.00;2.00;;;;;24.25;36.33;101668.19;2104080;28;47196;-54
2022/07/15 03:30:32;;;;;;;;;3.75;3.75;;;;;24.25;36.01;101670.88;2103921;28;47184;-53
2022/07/15 03:31:33;;;;;;;;;4.00;4.00;;;;;24.25;35.93;101670.03;2095107;28;47544;-52
2022/07/15 03:32:33;;;;;;;;;4.75;3.25;;;;;24.23;35.86;101670.13;2096498;28;47702;-54
2022/07/15 03:33:34;;;;;;;;;3.00;3.00;;;;;24.22;36.07;101671.09;2088315;28;47285;-52
2022/07/15 03:34:34;;;;;;;;;2.75;2.75;;;;;24.21;36.13;101674.78;2085914;28;47542;-54
2022/07/15 03:35:34;;;;;;;;;5.00;3.75;;;;;24.21;36.01;101672.06;2103739;27;47745;-54
2022/07/15 03:36:35;;;;;;;;;3.25;3.25;;;;;24.22;36.09;101664.78;2104155;28;47479;-51
2022/07/15 03:37:35;;;;;;;;;3.00;3.00;;;;;24.20;36.23;101656.75;2105421;28;47443;-53
2022/07/15 03:38:36;;;;;;;;;5.00;5.00;;;;;24.20;36.14;101654.06;2105053;28;48142;-49
2022/07/15 03:39:36;;;;;;;;;4.00;4.00;;;;;24.21;35.94;101657.63;2096441;28;47329;-55
2022/07/15 03:40:37;;;;;;;;;4.00;4.00;;;;;24.21;36.39;101654.91;2096287;28;48261;-54
2022/07/15 03:41:37;;;;;;;;;3.00;3.00;;;;;24.20;36.04;101659.47;2104125;28;48137;-54
2022/07/15 03:42:38;;;;;;;;;5.25;4.50;;;;;24.21;36.20;101657.63;2105057;28;47365;-54
2022/07/15 03:43:38;;;;;;;;;3.25;3.25;;;;;24.19;36.03;101656.88;2105328;28;47432;-52
2022/07/15 03:44:38;;;;;;;;;5.75;4.00;;;;;24.18;36.16;101653.28;2105191;28;47547;-51
2022/07/15 03:45:40;;;;;;;;;3.75;3.75;;;;;24.16;36.22;101649.81;2096305;28;47361;-55
2022/07/15 03:46:41;;;;;;;;;3.00;3.00;;;;;24.15;36.34;101652.63;2095001;28;47782;-52
2022/07/15 03:47:41;;;;;;;;;6.00;5.00;;;;;24.13;36.29;101647.25;2105116;28;47796;-53
2022/07/15 03:48:42;;;;;;;;;5.00;3.50;;;;;24.12;36.41;101650.94;2105284;28;47719;-55
2022/07/15 03:49:42;;;;;;;;;3.00;3.00;;;;;24.12;36.13;101648.22;2105251;28;47857;-54
2022/07/15 03:50:43;;;;;;;;;3.25;3.25;;;;;24.10;36.27;101649.31;2105241;28;47541;-51
2022/07/15 03:51:44;;;;;;;;;3.00;3.00;;;;;24.08;36.04;101641.28;2105119;28;48094;-53
2022/07/15 03:52:44;;;;;;;;;3.80;3.80;;;;;24.03;36.12;101646.13;2105336;28;47742;-53
2022/07/15 03:53:45;;;;;;;;;5.25;5.25;;;;;24.02;36.36;101645.25;2096292;28;46036;-51
2022/07/15 03:54:46;;;;;;;;;4.00;4.00;;;;;24.01;36.30;101645.31;2094811;28;47370;-55
2022/07/15 03:55:46;;;;;;;;;3.00;3.00;;;;;23.98;36.11;101645.53;2105282;28;47102;-54
2022/07/15 03:56:47;;;;;;;;;5.00;5.00;;;;;23.97;36.50;101643.78;2105473;28;47402;-54
2022/07/15 03:57:48;;;;;;;;;5.00;5.00;;;;;23.94;36.49;101644.84;2096153;28;47231;-52
2022/07/15 03:58:48;;;;;;;;;3.50;3.25;;;;;23.93;36.55;101644.97;2092735;28;47436;-55
2022/07/15 03:59:48;;;;;;;;;4.50;4.00;;;;;23.91;36.71;101650.47;2103276;28;47775;-53
2022/07/15 04:00:49;;;;;;;;;5.00;5.00;;;;;23.90;36.48;101654.16;2105487;27;47441;-54
2022/07/15 04:01:49;;;;;;;;;3.25;3.25;;;;;23.88;36.66;101649.78;2105367;28;47094;-54
2022/07/15 04:02:50;;;;;;;;;5.00;4.00;;;;;23.85;36.55;101650.84;2105303;28;47692;-54
2022/07/15 04:03:51;;;;;;;;;4.00;4.00;;;;;23.83;36.90;101643.78;2104940;28;46526;-52
2022/07/15 04:04:52;;;;;;;;;3.80;3.80;;;;;23.83;36.64;101654.63;2105229;28;47825;-55
2022/07/15 04:05:52;;;;;;;;;4.75;4.75;;;;;23.81;36.87;101662.84;2105111;28;47131;-55
2022/07/15 04:06:53;;;;;;;;;4.50;4.25;;;;;23.81;36.88;101656.56;2096236;28;47142;-53
2022/07/15 04:07:54;;;;;;;;;4.50;4.50;;;;;23.78;36.97;101653.09;2095695;28;47826;-51
2022/07/15 04:08:54;;;;;;;;;4.00;4.00;;;;;23.80;36.96;101660.25;2105074;28;46314;-55
2022/07/15 04:09:54;;;;;;;;;6.50;4.75;;;;;23.77;36.83;101667.59;2105301;28;45826;-54
2022/07/15 04:10:56;;;;;;;;;6.00;6.00;;;;;23.76;36.76;101660.44;2105170;28;47402;-54
2022/07/15 04:11:56;;;;;;;;;5.00;5.00;;;;;23.75;36.97;101666.81;2105216;28;48121;-54
2022/07/15 04:12:57;;;;;;;;;7.50;5.25;;;;;23.74;37.24;101662.34;2096836;28;47357;-54
2022/07/15 04:13:58;;;;;;;;;4.00;4.00;;;;;23.73;37.00;101659.75;2100429;28;46532;-53
2022/07/15 04:14:58;;;;;;;;;6.00;6.00;;;;;23.71;36.80;101665.25;2087391;28;47126;-51
2022/07/15 04:15:59;;;;;;;;;5.00;4.00;;;;;23.69;37.00;101659.06;2086768;28;48264;-53
2022/07/15 04:16:59;;;;;;;;;6.00;5.25;;;;;23.68;36.68;101667.28;2104938;28;48055;-55
2022/07/15 04:18:01;;;;;;;;;7.25;6.25;;;;;23.67;37.06;101669.13;2105166;28;46298;-51
2022/07/15 04:19:01;;;;;;;;;3.40;3.20;;;;;23.67;37.18;101666.44;2105013;28;47254;-53
2022/07/15 04:20:04;;;;;;;;;5.75;5.00;;;;;23.67;37.52;101666.44;2096056;28;47616;-54
2022/07/15 04:21:05;;;;;;;;;5.60;5.60;;;;;23.68;37.20;101668.16;2087999;28;47855;-55
2022/07/15 04:22:05;;;;;;;;;6.00;5.00;;;;;23.67;37.13;101668.25;2100555;28;47891;-54
2022/07/15 04:23:06;;;;;;;;;3.75;3.75;;;;;23.65;37.48;101676.50;2105100;28;47496;-52
2022/07/15 04:24:06;;;;;;;;;4.50;4.50;;;;;23.63;37.54;101678.44;2095748;28;47107;-54
2022/07/15 04:25:09;;;;;;;;;5.50;4.50;;;;;23.62;37.27;101676.66;2096082;28;48183;-55
2022/07/15 04:26:09;;;;;;;;;5.60;5.00;;;;;23.61;37.34;101672.19;2095521;28;48183;-55
2022/07/15 04:27:10;;;;;;;;;8.75;6.25;;;;;23.61;37.41;101666.78;2094699;28;47587;-55
2022/07/15 04:28:10;;;;;;;;;5.75;5.75;;;;;23.61;37.62;101676.75;2104763;28;47627;-52
2022/07/15 04:29:11;;;;;;;;;4.50;4.50;;;;;23.61;37.50;101672.19;2105502;28;47204;-53
2022/07/15 04:30:12;;;;;;;;;6.50;6.00;;;;;23.61;37.41;101671.34;2095953;28;47025;-53
2022/07/15 04:31:13;;;;;;;;;5.40;5.00;;;;;23.60;37.61;101675.00;2095369;28;47523;-53
2022/07/15 04:32:13;;;;;;;;;3.75;3.75;;;;;23.59;37.59;101678.69;2094919;28;47370;-50
2022/07/15 04:33:13;;;;;;;;;4.50;3.50;;;;;23.58;37.64;101677.81;2104847;28;48015;-53
2022/07/15 04:34:14;;;;;;;;;7.00;5.75;;;;;23.56;37.78;101674.31;2105254;28;47405;-53
2022/07/15 04:35:14;;;;;;;;;5.25;4.00;;;;;23.56;37.74;101682.44;2104950;28;47341;-54
2022/07/15 04:36:15;;;;;;;;;6.50;6.50;;;;;23.54;37.78;101673.53;2105050;28;48119;-53
2022/07/15 04:37:15;;;;;;;;;6.00;5.00;;;;;23.53;37.73;101669.06;2104927;28;47208;-55
2022/07/15 04:38:15;;;;;;;;;6.50;5.25;;;;;23.52;37.71;101669.16;2095734;28;47274;-54
2022/07/15 04:39:16;;;;;;;;;5.50;5.50;;;;;23.51;38.03;101671.00;2096123;28;47404;-53
2022/07/15 04:40:16;;;;;;;;;8.00;6.75;;;;;23.51;37.88;101665.59;2104741;28;47672;-53
2022/07/15 04:41:17;;;;;;;;;4.00;4.00;;;;;23.51;38.05;101672.84;2079219;28;47375;-53
2022/07/15 04:42:17;;;;;;;;;8.00;5.00;;;;;23.49;38.03;101672.91;2078827;28;47040;-55
2022/07/15 04:43:18;;;;;;;;;3.00;3.00;;;;;23.49;38.26;101678.34;2104454;28;47960;-49
2022/07/15 04:44:18;;;;;;;;;4.75;4.00;;;;;23.47;37.89;101678.44;2105209;28;46436;-52
2022/07/15 04:45:19;;;;;;;;;6.75;5.75;;;;;23.47;37.96;101674.84;2095684;28;47556;-54